Wetterdaten: Woche 17.03.08 - 23.03.08 (KW12)
Datum Zeit Temperatur Luftfeuchte Luftdruck Niederschlag Wind Richtung Sonnenschein Solar Taupunkt Windchill Windben
17.03.2008 00:00 7.0 C 87 % 1006.1 hPa 0.4 l/m 4.8 km/h (1 Bft) S-SW 0.00 h 0 W/m 5.0 C 6.4 C 8.3 km/h (2 Bft)
17.03.2008 01:00 6.5 C 90 % 1006.5 hPa 1.0 l/m 3.6 km/h (1 Bft) S-SO 0.00 h 0 W/m 4.9 C 6.2 C 6.8 km/h (2 Bft)
17.03.2008 02:00 6.4 C 92 % 1006.4 hPa 0.8 l/m 2.0 km/h (1 Bft) S-SO 0.00 h 0 W/m 5.3 C 6.4 C 3.5 km/h (1 Bft)
17.03.2008 03:00 6.3 C 95 % 1006.4 hPa 0.6 l/m 0.8 km/h (0 Bft) S-SO 0.00 h 0 W/m 5.5 C 6.3 C 2.2 km/h (1 Bft)
17.03.2008 04:00 6.3 C 95 % 1006.6 hPa 0.4 l/m 0.7 km/h (0 Bft) S-SO 0.00 h 0 W/m 5.5 C 6.3 C 1.9 km/h (1 Bft)
17.03.2008 05:00 6.2 C 96 % 1006.9 hPa 0.2 l/m 0.0 km/h (0 Bft) N 0.00 h 0 W/m 5.6 C 6.2 C 0.1 km/h (0 Bft)
17.03.2008 06:00 6.2 C 97 % 1007.1 hPa 0.2 l/m 0.0 km/h (0 Bft) S-SO 0.00 h 7 W/m 5.8 C 6.2 C 0.4 km/h (0 Bft)
17.03.2008 07:00 6.4 C 97 % 1007.6 hPa 0.0 l/m 1.8 km/h (1 Bft) SW 0.00 h 20 W/m 6.0 C 6.4 C 3.8 km/h (1 Bft)
17.03.2008 08:00 6.8 C 94 % 1008.2 hPa 0.0 l/m 4.0 km/h (1 Bft) W-SW 0.00 h 69 W/m 6.0 C 6.5 C 7.2 km/h (2 Bft)
17.03.2008 09:00 7.3 C 90 % 1008.6 hPa 0.0 l/m 5.1 km/h (1 Bft) W-SW 0.00 h 82 W/m 5.7 C 6.7 C 8.3 km/h (2 Bft)
17.03.2008 10:00 7.4 C 91 % 1008.9 hPa 0.2 l/m 4.1 km/h (1 Bft) SW 0.00 h 93 W/m 6.0 C 7.1 C 6.7 km/h (2 Bft)
17.03.2008 11:00 7.7 C 89 % 1009.2 hPa 0.0 l/m 7.0 km/h (2 Bft) W-SW 0.00 h 114 W/m 6.0 C 6.7 C 11.5 km/h (2 Bft)
17.03.2008 12:00 8.0 C 82 % 1009.4 hPa 0.0 l/m 10.7 km/h (2 Bft) W 0.00 h 99 W/m 5.2 C 6.1 C 17.6 km/h (3 Bft)
17.03.2008 13:00 7.9 C 83 % 1009.7 hPa 0.4 l/m 7.9 km/h (2 Bft) W 0.00 h 55 W/m 5.2 C 6.6 C 12.8 km/h (3 Bft)
17.03.2008 14:00 5.7 C 90 % 1010.2 hPa 1.8 l/m 3.6 km/h (1 Bft) O-SO 0.00 h 84 W/m 4.2 C 5.4 C 6.9 km/h (2 Bft)
17.03.2008 15:00 5.7 C 93 % 1010.5 hPa 1.0 l/m 0.4 km/h (0 Bft) N-NW 0.00 h 87 W/m 4.5 C 5.7 C 1.2 km/h (1 Bft)
17.03.2008 16:00 5.6 C 94 % 1010.6 hPa 0.6 l/m 0.1 km/h (0 Bft) N-NW 0.00 h 20 W/m 4.7 C 5.6 C 0.5 km/h (0 Bft)
17.03.2008 17:00 5.4 C 93 % 1010.6 hPa 0.0 l/m 0.6 km/h (0 Bft) N-NW 0.00 h 7 W/m 4.4 C 5.4 C 1.5 km/h (1 Bft)
17.03.2008 18:00 5.2 C 93 % 1010.8 hPa 0.6 l/m 0.9 km/h (0 Bft) SO 0.00 h 0 W/m 4.2 C 5.2 C 2.1 km/h (1 Bft)
17.03.2008 19:00 4.9 C 96 % 1011.2 hPa 0.0 l/m 0.0 km/h (0 Bft) N 0.00 h 0 W/m 4.2 C 4.9 C 0.0 km/h (0 Bft)
17.03.2008 20:00 4.8 C 96 % 1011.4 hPa 0.0 l/m 0.1 km/h (0 Bft) SO 0.00 h 0 W/m 4.2 C 4.8 C 0.5 km/h (0 Bft)
17.03.2008 21:00 4.6 C 97 % 1011.5 hPa 0.0 l/m 1.7 km/h (1 Bft) SO 0.00 h 0 W/m 4.1 C 4.6 C 2.8 km/h (1 Bft)
17.03.2008 22:00 4.5 C 95 % 1011.6 hPa 0.0 l/m 0.8 km/h (0 Bft) NO 0.00 h 0 W/m 3.8 C 4.4 C 2.1 km/h (1 Bft)
17.03.2008 23:00 3.9 C 82 % 1011.4 hPa 0.0 l/m 1.5 km/h (1 Bft) NO 0.00 h 0 W/m 1.2 C 3.9 C 3.7 km/h (1 Bft)
18.03.2008 00:00 3.2 C 87 % 1011.2 hPa 0.0 l/m 1.7 km/h (1 Bft) NO 0.00 h 0 W/m 1.3 C 2.9 C 2.7 km/h (1 Bft)
18.03.2008 01:00 2.6 C 90 % 1011.3 hPa 0.0 l/m 2.3 km/h (1 Bft) O 0.00 h 0 W/m 1.1 C 2.1 C 3.3 km/h (1 Bft)
18.03.2008 02:00 2.4 C 91 % 1011.5 hPa 0.0 l/m 1.5 km/h (1 Bft) O 0.00 h 0 W/m 1.0 C 2.4 C 2.9 km/h (1 Bft)
18.03.2008 03:00 2.4 C 92 % 1011.4 hPa 0.0 l/m 0.2 km/h (0 Bft) O 0.00 h 0 W/m 1.3 C 2.4 C 0.5 km/h (0 Bft)
18.03.2008 04:00 2.3 C 92 % 1011.4 hPa 0.0 l/m 0.1 km/h (0 Bft) O 0.00 h 0 W/m 1.2 C 2.3 C 0.4 km/h (0 Bft)
18.03.2008 05:00 2.2 C 90 % 1011.6 hPa 0.0 l/m 0.2 km/h (0 Bft) O 0.00 h 0 W/m 0.7 C 2.2 C 0.7 km/h (0 Bft)
18.03.2008 06:00 1.6 C 85 % 1011.8 hPa 0.0 l/m 1.1 km/h (0 Bft) O 0.00 h 10 W/m -0.6 C 1.6 C 2.1 km/h (1 Bft)
18.03.2008 07:00 1.8 C 86 % 1012.2 hPa 0.0 l/m 0.1 km/h (0 Bft) O 0.00 h 49 W/m -0.4 C 1.8 C 0.6 km/h (0 Bft)
18.03.2008 08:00 2.9 C 82 % 1012.8 hPa 0.0 l/m 0.3 km/h (0 Bft) O 0.07 h 149 W/m 0.2 C 2.9 C 1.3 km/h (1 Bft)
18.03.2008 09:00 4.3 C 69 % 1013.1 hPa 0.0 l/m 2.5 km/h (1 Bft) O 0.98 h 380 W/m -0.9 C 4.0 C 5.2 km/h (1 Bft)
18.03.2008 10:00 5.3 C 62 % 1013.4 hPa 0.0 l/m 4.8 km/h (1 Bft) O-SO 0.75 h 511 W/m -1.3 C 4.6 C 9.0 km/h (2 Bft)
18.03.2008 11:00 5.0 C 59 % 1013.8 hPa 0.0 l/m 2.9 km/h (1 Bft) N-NO 0.00 h 223 W/m -2.2 C 4.7 C 6.1 km/h (2 Bft)
18.03.2008 12:00 5.1 C 59 % 1014.2 hPa 0.2 l/m 4.6 km/h (1 Bft) N 0.18 h 244 W/m -2.3 C 4.4 C 8.3 km/h (2 Bft)
18.03.2008 13:00 6.6 C 51 % 1013.7 hPa 0.0 l/m 4.7 km/h (1 Bft) SO 0.92 h 647 W/m -3.0 C 5.9 C 8.4 km/h (2 Bft)
18.03.2008 14:00 7.0 C 44 % 1013.6 hPa 0.0 l/m 3.6 km/h (1 Bft) O-SO 0.48 h 436 W/m -4.6 C 6.5 C 6.6 km/h (2 Bft)
18.03.2008 15:00 7.6 C 40 % 1013.4 hPa 0.0 l/m 3.7 km/h (1 Bft) O-SO 1.00 h 480 W/m -5.3 C 7.2 C 7.1 km/h (2 Bft)
18.03.2008 16:00 7.4 C 41 % 1013.0 hPa 0.0 l/m 4.7 km/h (1 Bft) SO 0.77 h 266 W/m -5.1 C 6.8 C 7.9 km/h (2 Bft)
18.03.2008 17:00 6.7 C 41 % 1013.1 hPa 0.0 l/m 2.0 km/h (1 Bft) S-SO 0.15 h 69 W/m -5.8 C 6.6 C 4.0 km/h (1 Bft)
18.03.2008 18:00 5.4 C 48 % 1013.6 hPa 0.0 l/m 0.8 km/h (0 Bft) S-SO 0.00 h 13 W/m -4.6 C 5.4 C 1.6 km/h (1 Bft)
18.03.2008 19:00 3.2 C 65 % 1014.1 hPa 0.0 l/m 4.9 km/h (1 Bft) O-SO 0.00 h 0 W/m -2.8 C 2.2 C 6.7 km/h (2 Bft)
18.03.2008 20:00 2.9 C 65 % 1014.7 hPa 0.0 l/m 2.4 km/h (1 Bft) O-SO 0.00 h 0 W/m -3.1 C 2.5 C 3.3 km/h (1 Bft)
18.03.2008 21:00 2.4 C 69 % 1015.1 hPa 0.0 l/m 0.3 km/h (0 Bft) O-SO 0.00 h 0 W/m -2.8 C 2.4 C 1.2 km/h (1 Bft)
18.03.2008 22:00 1.5 C 69 % 1015.3 hPa 0.0 l/m 0.8 km/h (0 Bft) NO 0.00 h 0 W/m -3.6 C 1.5 C 1.8 km/h (1 Bft)
18.03.2008 23:00 1.0 C 73 % 1015.4 hPa 0.0 l/m 0.3 km/h (0 Bft) O-SO 0.00 h 0 W/m -3.3 C 1.0 C 1.1 km/h (0 Bft)
19.03.2008 00:00 -0.0 C 79 % 1015.4 hPa 0.0 l/m 0.2 km/h (0 Bft) O-SO 0.00 h 0 W/m -3.2 C -0.0 C 0.5 km/h (0 Bft)
19.03.2008 01:00 -0.7 C 83 % 1015.2 hPa 0.0 l/m 0.3 km/h (0 Bft) O-SO 0.00 h 0 W/m -3.3 C -0.7 C 0.8 km/h (0 Bft)
19.03.2008 02:00 -1.1 C 84 % 1014.8 hPa 0.0 l/m 0.1 km/h (0 Bft) O-SO 0.00 h 0 W/m -3.6 C -1.1 C 0.4 km/h (0 Bft)
19.03.2008 03:00 -1.7 C 83 % 1014.2 hPa 0.0 l/m 0.5 km/h (0 Bft) O-SO 0.00 h 0 W/m -4.2 C -1.7 C 1.4 km/h (1 Bft)
19.03.2008 04:00 -2.1 C 84 % 1013.9 hPa 0.0 l/m 1.4 km/h (1 Bft) O-SO 0.00 h 0 W/m -4.5 C -2.1 C 2.2 km/h (1 Bft)
19.03.2008 05:00 -2.4 C 85 % 1014.0 hPa 0.0 l/m 0.2 km/h (0 Bft) O-SO 0.00 h 0 W/m -4.6 C -2.4 C 0.6 km/h (0 Bft)
19.03.2008 06:00 -2.8 C 86 % 1014.2 hPa 0.0 l/m 1.2 km/h (1 Bft) O-SO 0.10 h 14 W/m -4.8 C -2.8 C 2.2 km/h (1 Bft)
19.03.2008 07:00 -2.0 C 86 % 1014.5 hPa 0.0 l/m 0.2 km/h (0 Bft) O-SO 0.40 h 83 W/m -3.9 C -2.0 C 0.4 km/h (0 Bft)
19.03.2008 08:00 -0.6 C 84 % 1014.6 hPa 0.0 l/m 0.1 km/h (0 Bft) O-SO 0.65 h 194 W/m -3.0 C -0.6 C 0.5 km/h (0 Bft)
19.03.2008 09:00 1.4 C 78 % 1014.5 hPa 0.0 l/m 0.9 km/h (0 Bft) O-SO 1.00 h 366 W/m -2.1 C 1.4 C 2.5 km/h (1 Bft)
19.03.2008 10:00 3.5 C 69 % 1014.4 hPa 0.0 l/m 1.6 km/h (1 Bft) N 0.98 h 466 W/m -1.6 C 3.5 C 3.2 km/h (1 Bft)
19.03.2008 11:00 5.2 C 58 % 1014.2 hPa 0.0 l/m 3.0 km/h (1 Bft) W-NW 0.53 h 388 W/m -2.3 C 4.8 C 5.5 km/h (1 Bft)
19.03.2008 12:00 4.4 C 58 % 1014.6 hPa 0.0 l/m 8.5 km/h (2 Bft) W 0.00 h 189 W/m -3.3 C 2.4 C 12.8 km/h (3 Bft)
19.03.2008 13:00 4.4 C 59 % 1014.6 hPa 0.0 l/m 4.2 km/h (1 Bft) W-NW 0.00 h 238 W/m -2.8 C 3.7 C 6.9 km/h (2 Bft)
19.03.2008 14:00 5.4 C 54 % 1014.5 hPa 0.0 l/m 2.3 km/h (1 Bft) W-SW 0.25 h 300 W/m -3.1 C 5.2 C 4.5 km/h (1 Bft)
19.03.2008 15:00 5.9 C 49 % 1014.4 hPa 0.0 l/m 3.4 km/h (1 Bft) W-SW 0.20 h 178 W/m -4.0 C 5.6 C 5.9 km/h (2 Bft)
19.03.2008 16:00 6.0 C 49 % 1014.2 hPa 0.0 l/m 2.5 km/h (1 Bft) W-SW 0.65 h 258 W/m -3.9 C 5.9 C 4.7 km/h (1 Bft)
19.03.2008 17:00 6.3 C 47 % 1014.3 hPa 0.0 l/m 7.3 km/h (2 Bft) W 0.18 h 88 W/m -4.0 C 4.9 C 11.6 km/h (2 Bft)
19.03.2008 18:00 5.3 C 53 % 1015.2 hPa 0.0 l/m 7.1 km/h (2 Bft) W 0.00 h 20 W/m -3.5 C 3.8 C 11.0 km/h (2 Bft)
19.03.2008 19:00 4.3 C 59 % 1016.1 hPa 0.0 l/m 7.3 km/h (2 Bft) W-NW 0.00 h 0 W/m -3.0 C 2.7 C 12.2 km/h (2 Bft)
19.03.2008 20:00 3.5 C 67 % 1016.9 hPa 0.0 l/m 2.0 km/h (1 Bft) W 0.00 h 0 W/m -2.2 C 3.4 C 4.1 km/h (1 Bft)
19.03.2008 21:00 3.2 C 71 % 1017.2 hPa 0.0 l/m 1.3 km/h (1 Bft) W-NW 0.00 h 0 W/m -1.5 C 3.2 C 3.1 km/h (1 Bft)
19.03.2008 22:00 2.4 C 74 % 1017.5 hPa 0.0 l/m 1.6 km/h (1 Bft) W-NW 0.00 h 0 W/m -1.7 C 2.2 C 3.1 km/h (1 Bft)
19.03.2008 23:00 1.7 C 78 % 1017.8 hPa 0.0 l/m 0.4 km/h (0 Bft) W 0.00 h 0 W/m -1.7 C 1.7 C 1.7 km/h (1 Bft)
20.03.2008 00:00 1.9 C 82 % 1018.1 hPa 0.0 l/m 1.8 km/h (1 Bft) W-NW 0.00 h 0 W/m -0.9 C 1.7 C 3.5 km/h (1 Bft)
20.03.2008 01:00 1.6 C 86 % 1018.1 hPa 0.0 l/m 0.8 km/h (0 Bft) W-NW 0.00 h 0 W/m -0.5 C 1.6 C 2.1 km/h (1 Bft)
20.03.2008 02:00 1.0 C 86 % 1018.0 hPa 0.0 l/m 1.8 km/h (1 Bft) W 0.00 h 0 W/m -1.0 C 0.8 C 3.6 km/h (1 Bft)
20.03.2008 03:00 -0.3 C 91 % 1018.1 hPa 0.0 l/m 0.3 km/h (0 Bft) W-NW 0.00 h 0 W/m -1.6 C -0.3 C 0.9 km/h (0 Bft)
20.03.2008 04:00 -0.9 C 93 % 1018.0 hPa 0.0 l/m 1.5 km/h (1 Bft) O-SO 0.00 h 0 W/m -1.8 C -1.0 C 2.6 km/h (1 Bft)
20.03.2008 05:00 -1.4 C 94 % 1018.3 hPa 0.0 l/m 1.5 km/h (1 Bft) O-SO 0.00 h 0 W/m -2.2 C -1.4 C 2.5 km/h (1 Bft)
20.03.2008 06:00 -1.7 C 94 % 1018.6 hPa 0.0 l/m 2.2 km/h (1 Bft) O-SO 0.12 h 17 W/m -2.6 C -1.9 C 3.2 km/h (1 Bft)
20.03.2008 07:00 -1.1 C 94 % 1019.0 hPa 0.0 l/m 1.9 km/h (1 Bft) O-SO 0.78 h 112 W/m -2.0 C -1.3 C 2.9 km/h (1 Bft)
20.03.2008 08:00 0.6 C 88 % 1019.4 hPa 0.0 l/m 2.4 km/h (1 Bft) O-SO 0.37 h 163 W/m -1.1 C 0.4 C 3.7 km/h (1 Bft)
20.03.2008 09:00 2.4 C 77 % 1019.5 hPa 0.0 l/m 6.0 km/h (2 Bft) W 0.40 h 302 W/m -1.2 C 0.9 C 10.1 km/h (2 Bft)
20.03.2008 10:00 3.2 C 69 % 1019.4 hPa 0.0 l/m 10.9 km/h (2 Bft) W 0.33 h 305 W/m -1.9 C 0.4 C 16.8 km/h (3 Bft)
20.03.2008 11:00 3.9 C 60 % 1019.3 hPa 0.0 l/m 9.9 km/h (2 Bft) W 0.15 h 257 W/m -3.1 C 1.5 C 15.6 km/h (3 Bft)
20.03.2008 12:00 4.5 C 57 % 1018.9 hPa 0.0 l/m 8.3 km/h (2 Bft) W-SW 0.35 h 379 W/m -3.4 C 2.6 C 12.7 km/h (3 Bft)
20.03.2008 13:00 5.7 C 48 % 1017.8 hPa 0.0 l/m 9.4 km/h (2 Bft) W-SW 0.33 h 330 W/m -4.6 C 3.7 C 14.7 km/h (3 Bft)
20.03.2008 14:00 6.1 C 50 % 1017.0 hPa 0.0 l/m 14.5 km/h (3 Bft) W 0.70 h 519 W/m -3.7 C 3.2 C 22.4 km/h (4 Bft)
20.03.2008 15:00 6.6 C 52 % 1016.4 hPa 0.0 l/m 11.3 km/h (2 Bft) W-SW 1.00 h 492 W/m -2.7 C 4.4 C 17.4 km/h (3 Bft)
20.03.2008 16:00 5.7 C 53 % 1015.5 hPa 0.0 l/m 9.2 km/h (2 Bft) W 0.13 h 121 W/m -3.3 C 3.8 C 14.7 km/h (3 Bft)
20.03.2008 17:00 4.3 C 64 % 1015.2 hPa 0.0 l/m 10.7 km/h (2 Bft) W 0.18 h 65 W/m -1.9 C 1.8 C 16.8 km/h (3 Bft)
20.03.2008 18:00 4.2 C 61 % 1014.7 hPa 0.0 l/m 12.1 km/h (2 Bft) W 0.52 h 31 W/m -2.6 C 1.4 C 18.8 km/h (3 Bft)
20.03.2008 19:00 3.8 C 63 % 1014.3 hPa 0.0 l/m 12.0 km/h (2 Bft) W 0.00 h 0 W/m -2.6 C 0.8 C 18.6 km/h (3 Bft)
20.03.2008 20:00 3.6 C 63 % 1013.6 hPa 0.0 l/m 9.0 km/h (2 Bft) W 0.00 h 0 W/m -2.8 C 1.3 C 13.7 km/h (3 Bft)
20.03.2008 21:00 3.7 C 59 % 1012.5 hPa 0.0 l/m 12.3 km/h (3 Bft) W 0.00 h 0 W/m -3.5 C 0.7 C 19.0 km/h (3 Bft)
20.03.2008 22:00 3.5 C 59 % 1011.3 hPa 0.0 l/m 6.9 km/h (2 Bft) W-SW 0.00 h 0 W/m -3.8 C 1.8 C 10.8 km/h (2 Bft)
20.03.2008 23:00 3.2 C 64 % 1009.8 hPa 0.0 l/m 7.7 km/h (2 Bft) SW 0.00 h 0 W/m -3.0 C 1.3 C 12.9 km/h (3 Bft)
21.03.2008 00:00 2.0 C 81 % 1008.4 hPa 0.2 l/m 8.9 km/h (2 Bft) SW 0.00 h 0 W/m -1.0 C -0.5 C 15.0 km/h (3 Bft)
21.03.2008 01:00 1.1 C 88 % 1006.4 hPa 0.2 l/m 11.6 km/h (2 Bft) SW 0.00 h 0 W/m -0.7 C -2.3 C 19.4 km/h (3 Bft)
21.03.2008 02:00 1.7 C 83 % 1004.1 hPa 0.0 l/m 15.0 km/h (3 Bft) SW 0.00 h 0 W/m -0.9 C -2.3 C 24.8 km/h (4 Bft)
21.03.2008 03:00 1.7 C 81 % 1001.8 hPa 0.0 l/m 16.1 km/h (3 Bft) SW 0.00 h 0 W/m -1.1 C -2.4 C 25.8 km/h (4 Bft)
21.03.2008 04:00 1.0 C 88 % 1000.1 hPa 0.4 l/m 11.6 km/h (2 Bft) SW 0.00 h 0 W/m -0.7 C -2.4 C 19.1 km/h (3 Bft)
21.03.2008 05:00 0.7 C 92 % 998.5 hPa 1.0 l/m 10.1 km/h (2 Bft) SW 0.00 h 0 W/m -0.4 C -2.3 C 17.2 km/h (3 Bft)
21.03.2008 06:00 0.7 C 95 % 996.8 hPa 1.4 l/m 11.4 km/h (2 Bft) SW 0.00 h 0 W/m 0.1 C -2.7 C 17.9 km/h (3 Bft)
21.03.2008 07:00 1.2 C 95 % 995.3 hPa 1.2 l/m 11.4 km/h (2 Bft) SW 0.00 h 11 W/m 0.4 C -2.2 C 18.4 km/h (3 Bft)
21.03.2008 08:00 1.7 C 92 % 993.8 hPa 1.0 l/m 11.5 km/h (2 Bft) SW 0.00 h 25 W/m 0.6 C -1.5 C 18.9 km/h (3 Bft)
21.03.2008 09:00 1.7 C 94 % 992.7 hPa 2.4 l/m 12.6 km/h (3 Bft) SW 0.00 h 40 W/m 0.8 C -1.7 C 21.4 km/h (4 Bft)
21.03.2008 10:00 2.1 C 93 % 991.1 hPa 1.8 l/m 16.9 km/h (3 Bft) SW 0.00 h 45 W/m 1.1 C -2.1 C 27.7 km/h (4 Bft)
21.03.2008 11:00 2.6 C 92 % 989.6 hPa 0.8 l/m 17.2 km/h (3 Bft) SW 0.00 h 67 W/m 1.4 C -1.4 C 28.0 km/h (4 Bft)
21.03.2008 12:00 3.2 C 89 % 987.9 hPa 0.8 l/m 16.0 km/h (3 Bft) SW 0.00 h 80 W/m 1.5 C -0.5 C 25.8 km/h (4 Bft)
21.03.2008 13:00 3.3 C 90 % 987.0 hPa 2.0 l/m 9.2 km/h (2 Bft) SW 0.00 h 52 W/m 1.8 C 1.0 C 15.1 km/h (3 Bft)
21.03.2008 14:00 2.5 C 95 % 986.6 hPa 4.2 l/m 7.7 km/h (2 Bft) SW 0.00 h 48 W/m 1.8 C 0.4 C 12.3 km/h (3 Bft)
21.03.2008 15:00 2.0 C 97 % 986.4 hPa 2.0 l/m 7.1 km/h (2 Bft) W-SW 0.00 h 56 W/m 1.6 C 0.0 C 11.2 km/h (2 Bft)
21.03.2008 16:00 2.1 C 97 % 987.0 hPa 1.4 l/m 7.0 km/h (2 Bft) W-SW 0.00 h 48 W/m 1.7 C 0.3 C 11.8 km/h (2 Bft)
21.03.2008 17:00 2.3 C 96 % 987.3 hPa 0.4 l/m 7.8 km/h (2 Bft) SW 0.05 h 49 W/m 1.7 C 0.2 C 12.8 km/h (3 Bft)
21.03.2008 18:00 2.2 C 96 % 987.4 hPa 0.0 l/m 4.2 km/h (1 Bft) S-SW 0.27 h 31 W/m 1.7 C 1.5 C 7.4 km/h (2 Bft)
21.03.2008 19:00 2.1 C 96 % 988.0 hPa 0.6 l/m 4.9 km/h (1 Bft) N-NW 0.00 h 0 W/m 1.5 C 1.1 C 8.4 km/h (2 Bft)
21.03.2008 20:00 1.3 C 96 % 989.5 hPa 0.8 l/m 8.7 km/h (2 Bft) W-NW 0.00 h 0 W/m 0.7 C -1.3 C 13.9 km/h (3 Bft)
21.03.2008 21:00 1.5 C 95 % 990.0 hPa 0.2 l/m 8.1 km/h (2 Bft) W 0.00 h 0 W/m 0.7 C -0.9 C 12.7 km/h (3 Bft)
21.03.2008 22:00 1.4 C 92 % 990.1 hPa 0.0 l/m 3.2 km/h (1 Bft) S-SW 0.00 h 0 W/m 0.2 C 1.0 C 6.4 km/h (2 Bft)
21.03.2008 23:00 1.3 C 92 % 990.4 hPa 0.0 l/m 4.9 km/h (1 Bft) S-SW 0.00 h 0 W/m 0.1 C 0.2 C 8.5 km/h (2 Bft)
22.03.2008 00:00 1.3 C 90 % 990.2 hPa 0.0 l/m 5.7 km/h (1 Bft) S-SW 0.00 h 0 W/m -0.1 C -0.2 C 9.5 km/h (2 Bft)
22.03.2008 01:00 1.3 C 88 % 990.0 hPa 0.0 l/m 5.0 km/h (1 Bft) S-SW 0.00 h 0 W/m -0.5 C 0.2 C 8.7 km/h (2 Bft)
22.03.2008 02:00 1.3 C 89 % 989.6 hPa 0.2 l/m 4.4 km/h (1 Bft) S-SW 0.00 h 0 W/m -0.4 C 0.5 C 7.9 km/h (2 Bft)
22.03.2008 03:00 1.2 C 92 % 989.5 hPa 0.0 l/m 4.8 km/h (1 Bft) SW 0.00 h 0 W/m 0.1 C 0.0 C 8.4 km/h (2 Bft)
22.03.2008 04:00 1.1 C 92 % 989.4 hPa 0.0 l/m 3.6 km/h (1 Bft) S-SW 0.00 h 0 W/m -0.0 C 0.7 C 6.6 km/h (2 Bft)
22.03.2008 05:00 1.0 C 92 % 989.4 hPa 0.0 l/m 4.4 km/h (1 Bft) S-SW 0.00 h 0 W/m -0.2 C 0.2 C 7.9 km/h (2 Bft)
22.03.2008 06:00 0.9 C 91 % 989.5 hPa 0.0 l/m 3.4 km/h (1 Bft) S-SW 0.25 h 22 W/m -0.4 C 0.3 C 6.3 km/h (2 Bft)
22.03.2008 07:00 1.1 C 91 % 989.6 hPa 0.0 l/m 4.3 km/h (1 Bft) S-SW 0.73 h 118 W/m -0.2 C 0.3 C 7.5 km/h (2 Bft)
22.03.2008 08:00 3.0 C 77 % 989.5 hPa 0.0 l/m 6.4 km/h (2 Bft) SW 1.00 h 314 W/m -0.6 C 1.5 C 10.7 km/h (2 Bft)
22.03.2008 09:00 4.7 C 66 % 989.8 hPa 0.0 l/m 7.6 km/h (2 Bft) SW 1.00 h 411 W/m -1.1 C 3.1 C 12.8 km/h (3 Bft)
22.03.2008 10:00 5.7 C 58 % 989.8 hPa 0.0 l/m 7.9 km/h (2 Bft) W-SW 0.92 h 541 W/m -1.9 C 4.1 C 13.2 km/h (3 Bft)
22.03.2008 11:00 6.4 C 52 % 989.8 hPa 0.0 l/m 11.0 km/h (2 Bft) SW 0.97 h 665 W/m -2.6 C 4.2 C 17.8 km/h (3 Bft)
22.03.2008 12:00 7.2 C 50 % 989.3 hPa 0.0 l/m 11.4 km/h (2 Bft) SW 0.67 h 500 W/m -2.5 C 5.1 C 18.8 km/h (3 Bft)
22.03.2008 13:00 5.4 C 65 % 990.1 hPa 0.0 l/m 10.7 km/h (2 Bft) W 0.80 h 475 W/m -0.7 C 3.1 C 16.3 km/h (3 Bft)
22.03.2008 14:00 5.9 C 66 % 989.8 hPa 0.0 l/m 9.8 km/h (2 Bft) N-NW 0.25 h 331 W/m -0.0 C 3.9 C 15.5 km/h (3 Bft)
22.03.2008 15:00 4.9 C 72 % 990.3 hPa 0.0 l/m 11.0 km/h (2 Bft) W 0.45 h 237 W/m 0.2 C 2.5 C 17.3 km/h (3 Bft)
22.03.2008 16:00 1.6 C 92 % 991.6 hPa 0.4 l/m 5.0 km/h (1 Bft) W 0.00 h 67 W/m 0.4 C 0.4 C 8.5 km/h (2 Bft)
22.03.2008 17:00 3.0 C 89 % 991.7 hPa 0.0 l/m 3.7 km/h (1 Bft) W 0.63 h 131 W/m 1.4 C 2.4 C 6.7 km/h (2 Bft)
22.03.2008 18:00 2.4 C 87 % 992.5 hPa 0.0 l/m 1.4 km/h (1 Bft) S-SO 0.02 h 18 W/m 0.5 C 2.4 C 3.4 km/h (1 Bft)
22.03.2008 19:00 1.4 C 90 % 993.2 hPa 0.0 l/m 1.0 km/h (0 Bft) S-SO 0.00 h 0 W/m -0.0 C 1.4 C 2.2 km/h (1 Bft)
22.03.2008 20:00 0.5 C 96 % 994.1 hPa 0.0 l/m 0.7 km/h (0 Bft) W 0.00 h 0 W/m -0.1 C 0.5 C 1.3 km/h (1 Bft)
22.03.2008 21:00 0.0 C 96 % 994.7 hPa 0.0 l/m 3.6 km/h (1 Bft) S 0.00 h 0 W/m -0.5 C -0.7 C 5.3 km/h (1 Bft)
22.03.2008 22:00 -0.2 C 96 % 995.2 hPa 0.0 l/m 2.4 km/h (1 Bft) S-SO 0.00 h 0 W/m -0.8 C -0.4 C 3.8 km/h (1 Bft)
22.03.2008 23:00 -0.3 C 96 % 995.2 hPa 0.0 l/m 0.4 km/h (0 Bft) S-SO 0.00 h 0 W/m -0.8 C -0.3 C 0.6 km/h (0 Bft)
23.03.2008 00:00 -0.0 C 97 % 995.6 hPa 0.2 l/m 0.7 km/h (0 Bft) S-SO 0.00 h 0 W/m -0.4 C -0.0 C 1.6 km/h (1 Bft)
23.03.2008 01:00 0.0 C 98 % 995.6 hPa 0.0 l/m 0.5 km/h (0 Bft) S-SO 0.00 h 0 W/m -0.3 C 0.0 C 0.9 km/h (0 Bft)
23.03.2008 02:00 0.0 C 98 % 995.5 hPa 0.0 l/m 0.3 km/h (0 Bft) S-SO 0.00 h 0 W/m -0.2 C 0.0 C 0.8 km/h (0 Bft)
23.03.2008 03:00 -0.0 C 98 % 995.6 hPa 0.0 l/m 0.1 km/h (0 Bft) S-SO 0.00 h 0 W/m -0.3 C -0.0 C 0.3 km/h (0 Bft)
23.03.2008 04:00 0.0 C 98 % 995.8 hPa 0.0 l/m 0.7 km/h (0 Bft) S-SO 0.00 h 0 W/m -0.3 C 0.0 C 1.4 km/h (1 Bft)
23.03.2008 05:00 0.3 C 97 % 996.2 hPa 0.0 l/m 2.0 km/h (1 Bft) S-SO 0.00 h 0 W/m -0.1 C 0.2 C 3.9 km/h (1 Bft)
23.03.2008 06:00 0.4 C 95 % 996.5 hPa 0.0 l/m 0.7 km/h (0 Bft) S 0.00 h 7 W/m -0.3 C 0.4 C 2.5 km/h (1 Bft)
23.03.2008 07:00 0.4 C 95 % 996.8 hPa 0.0 l/m 0.2 km/h (0 Bft) S 0.00 h 34 W/m -0.3 C 0.4 C 1.0 km/h (0 Bft)
23.03.2008 08:00 1.0 C 93 % 996.9 hPa 0.0 l/m 0.7 km/h (0 Bft) S 0.00 h 106 W/m 0.0 C 1.0 C 1.8 km/h (1 Bft)
23.03.2008 09:00 2.1 C 88 % 997.2 hPa 0.0 l/m 1.6 km/h (1 Bft) W 0.00 h 165 W/m 0.4 C 2.1 C 3.6 km/h (1 Bft)
23.03.2008 10:00 2.6 C 85 % 997.3 hPa 0.0 l/m 3.2 km/h (1 Bft) W-NW 0.00 h 199 W/m 0.2 C 2.1 C 5.5 km/h (1 Bft)
23.03.2008 11:00 2.8 C 88 % 997.3 hPa 0.0 l/m 2.2 km/h (1 Bft) N-NW 0.25 h 362 W/m 1.0 C 2.6 C 4.4 km/h (1 Bft)
23.03.2008 12:00 2.5 C 86 % 997.6 hPa 0.0 l/m 6.4 km/h (2 Bft) N-NW 0.20 h 280 W/m 0.4 C 0.9 C 10.1 km/h (2 Bft)
23.03.2008 13:00 0.7 C 96 % 997.8 hPa 0.0 l/m 0.3 km/h (0 Bft) N 0.00 h 89 W/m 0.2 C 0.7 C 1.1 km/h (0 Bft)
23.03.2008 14:00 1.0 C 97 % 997.5 hPa 2.8 l/m 3.8 km/h (1 Bft) O-SO 0.12 h 215 W/m 0.6 C 0.2 C 5.6 km/h (1 Bft)
23.03.2008 15:00 1.7 C 93 % 997.4 hPa 2.2 l/m 2.5 km/h (1 Bft) NO 0.33 h 224 W/m 0.7 C 1.5 C 5.7 km/h (1 Bft)
23.03.2008 16:00 1.7 C 87 % 997.6 hPa 1.0 l/m 1.2 km/h (1 Bft) O-NO 0.32 h 166 W/m -0.2 C 1.6 C 2.7 km/h (1 Bft)
23.03.2008 17:00 2.2 C 85 % 997.9 hPa 0.2 l/m 0.8 km/h (0 Bft) O-NO 0.42 h 107 W/m -0.1 C 2.2 C 1.9 km/h (1 Bft)
23.03.2008 18:00 1.7 C 87 % 998.4 hPa 0.0 l/m 3.6 km/h (1 Bft) NW 0.00 h 18 W/m -0.3 C 1.2 C 5.6 km/h (1 Bft)
23.03.2008 19:00 0.9 C 82 % 999.3 hPa 0.0 l/m 3.5 km/h (1 Bft) W-NW 0.00 h 0 W/m -1.8 C 0.2 C 6.0 km/h (2 Bft)
23.03.2008 20:00 0.5 C 80 % 999.6 hPa 0.0 l/m 6.4 km/h (2 Bft) W-NW 0.00 h 0 W/m -2.5 C -1.4 C 10.1 km/h (2 Bft)
23.03.2008 21:00 0.1 C 81 % 999.7 hPa 0.0 l/m 10.3 km/h (2 Bft) W 0.00 h 0 W/m -2.8 C -3.2 C 16.3 km/h (3 Bft)
23.03.2008 22:00 -0.2 C 81 % 999.5 hPa 0.0 l/m 9.2 km/h (2 Bft) W 0.00 h 0 W/m -3.0 C -3.1 C 14.3 km/h (3 Bft)
23.03.2008 23:00 -0.6 C 82 % 999.4 hPa 0.0 l/m 4.3 km/h (1 Bft) W 0.00 h 0 W/m -3.3 C -1.5 C 7.0 km/h (2 Bft)
Min-Datum _ 19.03.08 18.03.08 21.03.08 - 17.03.08 - - - 18.03.08 23.03.08 17.03.08
_ Min-Zeit 06:11 15:57 15:00 - 00:38 - - - 15:38 22:19 02:38
Minimum _ -3.1 C 34 % 986.3 hPa - 0.0 km/h (0 Bft) - - - -7.2 C -4.8 C 0.0 km/h (0 Bft)
Max-Datum _ 17.03.08 17.03.08 20.03.08 21.03.08 21.03.08 - 18.03.08 23.03.08 17.03.08 18.03.08 21.03.08
_ Max-Zeit 13:02 07:04 08:30 14:00 11:43 - 08:41 12:06 10:57 15:57 02:51
Maximum _ 8.3 C 98 % 1019.5 hPa 4.2 l/m 29.5 km/h
SW (5 Bft)
- 0.02 h 1005 W/m 6.4 C 8.2 C 48.7 km/h
SW (6 Bft)
Durchschnitt _ 2.9 C 81 % 1005.1 hPa #38.2 l/m 4.6 km/h (1 Bft) W #25:15 h 185 W/m -0.4 C 1.9 C 7.7 km/h (2 Bft)
© Kaiko 2008